sensor_id;sensor_type;location;lat;lon;timestamp;P1;durP1;ratioP1;P2;durP2;ratioP2
35959;SDS011;22043;50.970;7.192;2023-07-02T00:02:25;7.30;;;2.17;;
35959;SDS011;22043;50.970;7.192;2023-07-02T00:04:50;4.22;;;1.65;;
35959;SDS011;22043;50.970;7.192;2023-07-02T00:07:16;6.80;;;2.42;;
35959;SDS011;22043;50.970;7.192;2023-07-02T00:09:41;7.63;;;2.50;;
35959;SDS011;22043;50.970;7.192;2023-07-02T00:12:07;4.22;;;1.90;;
35959;SDS011;22043;50.970;7.192;2023-07-02T00:14:32;6.10;;;2.03;;
35959;SDS011;22043;50.970;7.192;2023-07-02T00:16:58;6.40;;;2.42;;
35959;SDS011;22043;50.970;7.192;2023-07-02T00:19:24;6.85;;;1.80;;
35959;SDS011;22043;50.970;7.192;2023-07-02T00:21:49;4.90;;;1.80;;
35959;SDS011;22043;50.970;7.192;2023-07-02T00:24:15;3.90;;;2.10;;
35959;SDS011;22043;50.970;7.192;2023-07-02T00:26:41;6.22;;;1.60;;
35959;SDS011;22043;50.970;7.192;2023-07-02T00:29:10;6.07;;;2.35;;
35959;SDS011;22043;50.970;7.192;2023-07-02T00:31:36;6.78;;;2.30;;
35959;SDS011;22043;50.970;7.192;2023-07-02T00:34:01;5.82;;;2.10;;
35959;SDS011;22043;50.970;7.192;2023-07-02T00:36:28;4.38;;;1.92;;
35959;SDS011;22043;50.970;7.192;2023-07-02T00:38:53;5.28;;;1.83;;
35959;SDS011;22043;50.970;7.192;2023-07-02T00:41:19;6.57;;;2.20;;
35959;SDS011;22043;50.970;7.192;2023-07-02T00:43:45;5.55;;;1.73;;
35959;SDS011;22043;50.970;7.192;2023-07-02T00:46:14;4.80;;;1.98;;
35959;SDS011;22043;50.970;7.192;2023-07-02T00:48:48;6.20;;;2.30;;
35959;SDS011;22043;50.970;7.192;2023-07-02T00:51:15;6.18;;;1.85;;
35959;SDS011;22043;50.970;7.192;2023-07-02T00:53:43;5.97;;;1.92;;
35959;SDS011;22043;50.970;7.192;2023-07-02T00:56:10;4.20;;;1.80;;
35959;SDS011;22043;50.970;7.192;2023-07-02T00:58:37;6.10;;;2.08;;
35959;SDS011;22043;50.970;7.192;2023-07-02T01:01:05;5.57;;;1.88;;
35959;SDS011;22043;50.970;7.192;2023-07-02T01:03:30;7.43;;;2.00;;
35959;SDS011;22043;50.970;7.192;2023-07-02T01:05:58;6.87;;;2.03;;
35959;SDS011;22043;50.970;7.192;2023-07-02T01:08:24;7.97;;;2.28;;
35959;SDS011;22043;50.970;7.192;2023-07-02T01:10:50;6.18;;;2.13;;
35959;SDS011;22043;50.970;7.192;2023-07-02T01:13:17;6.90;;;2.45;;
35959;SDS011;22043;50.970;7.192;2023-07-02T01:15:44;5.00;;;2.20;;
35959;SDS011;22043;50.970;7.192;2023-07-02T01:18:10;8.52;;;2.13;;
35959;SDS011;22043;50.970;7.192;2023-07-02T01:20:38;5.68;;;1.95;;
35959;SDS011;22043;50.970;7.192;2023-07-02T01:23:03;7.07;;;1.90;;
35959;SDS011;22043;50.970;7.192;2023-07-02T01:25:29;4.35;;;1.95;;
35959;SDS011;22043;50.970;7.192;2023-07-02T01:27:55;4.38;;;1.80;;
35959;SDS011;22043;50.970;7.192;2023-07-02T01:30:24;6.57;;;2.03;;
35959;SDS011;22043;50.970;7.192;2023-07-02T01:32:51;10.27;;;2.20;;
35959;SDS011;22043;50.970;7.192;2023-07-02T01:35:16;7.78;;;2.10;;
35959;SDS011;22043;50.970;7.192;2023-07-02T01:37:42;8.70;;;2.08;;
35959;SDS011;22043;50.970;7.192;2023-07-02T01:40:08;5.53;;;1.77;;
35959;SDS011;22043;50.970;7.192;2023-07-02T01:42:35;6.57;;;1.83;;
35959;SDS011;22043;50.970;7.192;2023-07-02T01:45:02;7.80;;;2.30;;
35959;SDS011;22043;50.970;7.192;2023-07-02T01:47:27;4.63;;;2.22;;
35959;SDS011;22043;50.970;7.192;2023-07-02T01:49:53;6.60;;;2.17;;
35959;SDS011;22043;50.970;7.192;2023-07-02T01:52:19;9.88;;;2.65;;
35959;SDS011;22043;50.970;7.192;2023-07-02T01:54:44;6.93;;;2.17;;
35959;SDS011;22043;50.970;7.192;2023-07-02T01:57:10;6.95;;;2.03;;
35959;SDS011;22043;50.970;7.192;2023-07-02T01:59:36;6.75;;;2.38;;
35959;SDS011;22043;50.970;7.192;2023-07-02T02:02:02;6.35;;;2.63;;
35959;SDS011;22043;50.970;7.192;2023-07-02T02:04:27;8.45;;;3.20;;
35959;SDS011;22043;50.970;7.192;2023-07-02T02:06:53;9.85;;;3.40;;
35959;SDS011;22043;50.970;7.192;2023-07-02T02:12:36;6.80;;;3.10;;
35959;SDS011;22043;50.970;7.192;2023-07-02T02:15:06;7.10;;;2.67;;
35959;SDS011;22043;50.970;7.192;2023-07-02T02:17:31;11.18;;;3.13;;
35959;SDS011;22043;50.970;7.192;2023-07-02T02:19:57;12.38;;;3.00;;
35959;SDS011;22043;50.970;7.192;2023-07-02T02:22:23;8.13;;;3.47;;
35959;SDS011;22043;50.970;7.192;2023-07-02T02:24:48;12.23;;;3.78;;
35959;SDS011;22043;50.970;7.192;2023-07-02T02:27:14;10.48;;;4.20;;
35959;SDS011;22043;50.970;7.192;2023-07-02T02:29:39;10.13;;;3.88;;
35959;SDS011;22043;50.970;7.192;2023-07-02T02:32:05;12.48;;;4.28;;
35959;SDS011;22043;50.970;7.192;2023-07-02T02:34:31;13.48;;;4.18;;
35959;SDS011;22043;50.970;7.192;2023-07-02T02:36:57;10.07;;;3.70;;
35959;SDS011;22043;50.970;7.192;2023-07-02T02:39:23;13.30;;;3.90;;
35959;SDS011;22043;50.970;7.192;2023-07-02T02:41:48;12.15;;;4.70;;
35959;SDS011;22043;50.970;7.192;2023-07-02T02:44:18;12.27;;;3.90;;
35959;SDS011;22043;50.970;7.192;2023-07-02T02:46:44;17.00;;;4.90;;
35959;SDS011;22043;50.970;7.192;2023-07-02T02:49:09;11.00;;;4.20;;
35959;SDS011;22043;50.970;7.192;2023-07-02T02:51:34;14.63;;;4.97;;
35959;SDS011;22043;50.970;7.192;2023-07-02T02:54:00;14.00;;;4.53;;
35959;SDS011;22043;50.970;7.192;2023-07-02T02:56:25;12.73;;;5.28;;
35959;SDS011;22043;50.970;7.192;2023-07-02T02:58:51;16.75;;;4.68;;
35959;SDS011;22043;50.970;7.192;2023-07-02T03:01:16;16.00;;;5.13;;
35959;SDS011;22043;50.970;7.192;2023-07-02T03:03:42;16.00;;;5.07;;
35959;SDS011;22043;50.970;7.192;2023-07-02T03:08:36;11.75;;;4.90;;
35959;SDS011;22043;50.970;7.192;2023-07-02T03:11:02;15.45;;;5.28;;
35959;SDS011;22043;50.970;7.192;2023-07-02T03:13:27;14.40;;;4.82;;
35959;SDS011;22043;50.970;7.192;2023-07-02T03:15:52;15.38;;;5.53;;
35959;SDS011;22043;50.970;7.192;2023-07-02T03:18:18;13.57;;;5.25;;
35959;SDS011;22043;50.970;7.192;2023-07-02T03:20:43;19.67;;;5.68;;
35959;SDS011;22043;50.970;7.192;2023-07-02T03:23:09;11.88;;;5.30;;
35959;SDS011;22043;50.970;7.192;2023-07-02T03:25:34;12.27;;;5.15;;
35959;SDS011;22043;50.970;7.192;2023-07-02T03:27:59;17.90;;;5.82;;
35959;SDS011;22043;50.970;7.192;2023-07-02T03:30:25;17.73;;;6.75;;
35959;SDS011;22043;50.970;7.192;2023-07-02T03:32:50;17.35;;;5.88;;
35959;SDS011;22043;50.970;7.192;2023-07-02T03:35:16;16.35;;;5.90;;
35959;SDS011;22043;50.970;7.192;2023-07-02T03:37:41;14.32;;;6.00;;
35959;SDS011;22043;50.970;7.192;2023-07-02T03:40:08;15.15;;;6.65;;
35959;SDS011;22043;50.970;7.192;2023-07-02T03:42:34;20.10;;;6.35;;
35959;SDS011;22043;50.970;7.192;2023-07-02T03:45:00;13.27;;;5.88;;
35959;SDS011;22043;50.970;7.192;2023-07-02T03:47:25;14.35;;;5.80;;
35959;SDS011;22043;50.970;7.192;2023-07-02T03:49:50;12.85;;;5.30;;
35959;SDS011;22043;50.970;7.192;2023-07-02T03:52:16;14.73;;;6.20;;
35959;SDS011;22043;50.970;7.192;2023-07-02T03:54:41;19.13;;;6.38;;
35959;SDS011;22043;50.970;7.192;2023-07-02T03:57:07;13.32;;;5.93;;
35959;SDS011;22043;50.970;7.192;2023-07-02T03:59:32;18.95;;;6.38;;
35959;SDS011;22043;50.970;7.192;2023-07-02T04:01:58;13.82;;;5.43;;
35959;SDS011;22043;50.970;7.192;2023-07-02T04:04:24;17.55;;;6.53;;
35959;SDS011;22043;50.970;7.192;2023-07-02T04:06:49;16.83;;;7.13;;
35959;SDS011;22043;50.970;7.192;2023-07-02T04:09:14;18.88;;;6.90;;
35959;SDS011;22043;50.970;7.192;2023-07-02T04:11:40;17.90;;;6.60;;
35959;SDS011;22043;50.970;7.192;2023-07-02T04:14:05;15.95;;;6.40;;
35959;SDS011;22043;50.970;7.192;2023-07-02T04:16:31;19.27;;;6.35;;
35959;SDS011;22043;50.970;7.192;2023-07-02T04:18:56;16.85;;;7.05;;
35959;SDS011;22043;50.970;7.192;2023-07-02T04:21:22;14.43;;;6.45;;
35959;SDS011;22043;50.970;7.192;2023-07-02T04:23:47;19.60;;;6.18;;
35959;SDS011;22043;50.970;7.192;2023-07-02T04:26:12;18.75;;;7.13;;
35959;SDS011;22043;50.970;7.192;2023-07-02T04:28:38;17.88;;;6.72;;
35959;SDS011;22043;50.970;7.192;2023-07-02T04:31:03;16.38;;;6.35;;
35959;SDS011;22043;50.970;7.192;2023-07-02T04:33:29;18.92;;;7.78;;
35959;SDS011;22043;50.970;7.192;2023-07-02T04:36:00;16.80;;;6.50;;
35959;SDS011;22043;50.970;7.192;2023-07-02T04:38:26;18.63;;;7.28;;
35959;SDS011;22043;50.970;7.192;2023-07-02T04:40:53;19.63;;;6.90;;
35959;SDS011;22043;50.970;7.192;2023-07-02T04:43:18;17.25;;;7.45;;
35959;SDS011;22043;50.970;7.192;2023-07-02T04:45:44;18.08;;;6.43;;
35959;SDS011;22043;50.970;7.192;2023-07-02T04:48:09;25.10;;;7.53;;
35959;SDS011;22043;50.970;7.192;2023-07-02T04:50:35;19.70;;;6.97;;
35959;SDS011;22043;50.970;7.192;2023-07-02T04:53:00;24.85;;;8.20;;
35959;SDS011;22043;50.970;7.192;2023-07-02T04:55:26;23.52;;;7.95;;
35959;SDS011;22043;50.970;7.192;2023-07-02T04:57:52;22.90;;;7.80;;
35959;SDS011;22043;50.970;7.192;2023-07-02T05:00:18;16.13;;;7.45;;
35959;SDS011;22043;50.970;7.192;2023-07-02T05:02:43;25.25;;;8.80;;
35959;SDS011;22043;50.970;7.192;2023-07-02T05:05:09;21.08;;;7.95;;
35959;SDS011;22043;50.970;7.192;2023-07-02T05:07:34;23.60;;;8.02;;
35959;SDS011;22043;50.970;7.192;2023-07-02T05:10:00;19.85;;;8.27;;
35959;SDS011;22043;50.970;7.192;2023-07-02T05:12:25;18.83;;;8.25;;
35959;SDS011;22043;50.970;7.192;2023-07-02T05:14:50;22.05;;;8.98;;
35959;SDS011;22043;50.970;7.192;2023-07-02T05:17:16;20.75;;;7.63;;
35959;SDS011;22043;50.970;7.192;2023-07-02T05:19:41;18.13;;;8.48;;
35959;SDS011;22043;50.970;7.192;2023-07-02T05:22:08;19.70;;;8.13;;
35959;SDS011;22043;50.970;7.192;2023-07-02T05:24:34;20.40;;;8.02;;
35959;SDS011;22043;50.970;7.192;2023-07-02T05:26:59;23.08;;;9.32;;
35959;SDS011;22043;50.970;7.192;2023-07-02T05:29:24;26.42;;;8.60;;
35959;SDS011;22043;50.970;7.192;2023-07-02T05:31:50;21.50;;;8.50;;
35959;SDS011;22043;50.970;7.192;2023-07-02T05:34:15;26.27;;;8.73;;
35959;SDS011;22043;50.970;7.192;2023-07-02T05:36:41;22.90;;;8.70;;
35959;SDS011;22043;50.970;7.192;2023-07-02T05:39:06;23.55;;;8.98;;
35959;SDS011;22043;50.970;7.192;2023-07-02T05:41:31;20.58;;;9.18;;
35959;SDS011;22043;50.970;7.192;2023-07-02T05:43:57;34.17;;;9.38;;
35959;SDS011;22043;50.970;7.192;2023-07-02T05:46:23;24.65;;;9.77;;
35959;SDS011;22043;50.970;7.192;2023-07-02T05:48:48;23.75;;;9.70;;
35959;SDS011;22043;50.970;7.192;2023-07-02T05:51:14;24.67;;;9.82;;
35959;SDS011;22043;50.970;7.192;2023-07-02T05:53:45;24.30;;;8.80;;
35959;SDS011;22043;50.970;7.192;2023-07-02T05:56:10;25.88;;;10.52;;
35959;SDS011;22043;50.970;7.192;2023-07-02T05:58:35;25.38;;;9.63;;
35959;SDS011;22043;50.970;7.192;2023-07-02T06:01:01;31.30;;;9.15;;
35959;SDS011;22043;50.970;7.192;2023-07-02T06:03:27;21.33;;;8.63;;
35959;SDS011;22043;50.970;7.192;2023-07-02T06:05:52;30.52;;;9.65;;
35959;SDS011;22043;50.970;7.192;2023-07-02T06:08:18;27.30;;;9.88;;
35959;SDS011;22043;50.970;7.192;2023-07-02T06:10:46;27.25;;;10.13;;
35959;SDS011;22043;50.970;7.192;2023-07-02T06:13:12;23.92;;;11.48;;
35959;SDS011;22043;50.970;7.192;2023-07-02T06:15:37;25.67;;;9.57;;
35959;SDS011;22043;50.970;7.192;2023-07-02T06:18:03;30.83;;;10.13;;
35959;SDS011;22043;50.970;7.192;2023-07-02T06:20:28;22.40;;;9.75;;
35959;SDS011;22043;50.970;7.192;2023-07-02T06:22:53;31.40;;;9.40;;
35959;SDS011;22043;50.970;7.192;2023-07-02T06:25:19;29.60;;;10.68;;
35959;SDS011;22043;50.970;7.192;2023-07-02T06:27:44;32.35;;;10.57;;
35959;SDS011;22043;50.970;7.192;2023-07-02T06:30:10;23.10;;;9.32;;
35959;SDS011;22043;50.970;7.192;2023-07-02T06:32:36;28.15;;;10.48;;
35959;SDS011;22043;50.970;7.192;2023-07-02T06:35:02;28.67;;;11.07;;
35959;SDS011;22043;50.970;7.192;2023-07-02T06:37:27;22.55;;;10.65;;
35959;SDS011;22043;50.970;7.192;2023-07-02T06:39:53;25.20;;;9.85;;
35959;SDS011;22043;50.970;7.192;2023-07-02T06:42:18;25.88;;;9.85;;
35959;SDS011;22043;50.970;7.192;2023-07-02T06:44:44;23.52;;;9.55;;
35959;SDS011;22043;50.970;7.192;2023-07-02T06:47:09;26.42;;;10.50;;
35959;SDS011;22043;50.970;7.192;2023-07-02T06:49:35;27.08;;;9.23;;
35959;SDS011;22043;50.970;7.192;2023-07-02T06:52:01;28.70;;;9.35;;
35959;SDS011;22043;50.970;7.192;2023-07-02T06:54:26;20.83;;;9.07;;
35959;SDS011;22043;50.970;7.192;2023-07-02T06:56:52;25.67;;;9.35;;
35959;SDS011;22043;50.970;7.192;2023-07-02T06:59:21;23.35;;;10.45;;
35959;SDS011;22043;50.970;7.192;2023-07-02T07:01:47;23.92;;;8.80;;
35959;SDS011;22043;50.970;7.192;2023-07-02T07:04:12;26.17;;;10.10;;
35959;SDS011;22043;50.970;7.192;2023-07-02T07:06:38;23.60;;;8.30;;
35959;SDS011;22043;50.970;7.192;2023-07-02T07:09:03;23.33;;;8.55;;
35959;SDS011;22043;50.970;7.192;2023-07-02T07:11:29;23.85;;;8.32;;
35959;SDS011;22043;50.970;7.192;2023-07-02T07:13:54;23.27;;;8.98;;
35959;SDS011;22043;50.970;7.192;2023-07-02T07:16:19;25.15;;;9.00;;
35959;SDS011;22043;50.970;7.192;2023-07-02T07:18:45;24.88;;;7.70;;
35959;SDS011;22043;50.970;7.192;2023-07-02T07:21:10;21.30;;;7.95;;
35959;SDS011;22043;50.970;7.192;2023-07-02T07:23:36;24.15;;;7.45;;
35959;SDS011;22043;50.970;7.192;2023-07-02T07:26:01;26.65;;;7.80;;
35959;SDS011;22043;50.970;7.192;2023-07-02T07:28:27;21.38;;;8.60;;
35959;SDS011;22043;50.970;7.192;2023-07-02T07:30:52;22.05;;;7.82;;
35959;SDS011;22043;50.970;7.192;2023-07-02T07:33:17;22.85;;;7.97;;
35959;SDS011;22043;50.970;7.192;2023-07-02T07:35:43;21.98;;;7.22;;
35959;SDS011;22043;50.970;7.192;2023-07-02T07:38:08;24.27;;;8.75;;
35959;SDS011;22043;50.970;7.192;2023-07-02T07:40:34;22.30;;;8.77;;
35959;SDS011;22043;50.970;7.192;2023-07-02T07:42:59;18.85;;;7.95;;
35959;SDS011;22043;50.970;7.192;2023-07-02T07:45:24;21.98;;;8.02;;
35959;SDS011;22043;50.970;7.192;2023-07-02T07:47:50;20.23;;;9.32;;
35959;SDS011;22043;50.970;7.192;2023-07-02T07:50:15;24.02;;;8.23;;
35959;SDS011;22043;50.970;7.192;2023-07-02T07:52:41;20.20;;;8.48;;
35959;SDS011;22043;50.970;7.192;2023-07-02T07:55:08;19.88;;;7.80;;
35959;SDS011;22043;50.970;7.192;2023-07-02T07:57:34;21.70;;;6.97;;
35959;SDS011;22043;50.970;7.192;2023-07-02T08:00:00;21.65;;;7.75;;
35959;SDS011;22043;50.970;7.192;2023-07-02T08:02:25;17.55;;;7.85;;
35959;SDS011;22043;50.970;7.192;2023-07-02T08:04:51;24.65;;;8.55;;
35959;SDS011;22043;50.970;7.192;2023-07-02T08:07:16;23.52;;;8.48;;
35959;SDS011;22043;50.970;7.192;2023-07-02T08:09:41;22.08;;;9.35;;
35959;SDS011;22043;50.970;7.192;2023-07-02T08:12:07;20.95;;;7.28;;
35959;SDS011;22043;50.970;7.192;2023-07-02T08:14:33;20.20;;;7.35;;
35959;SDS011;22043;50.970;7.192;2023-07-02T08:17:00;19.30;;;7.15;;
35959;SDS011;22043;50.970;7.192;2023-07-02T08:19:25;19.13;;;7.28;;
35959;SDS011;22043;50.970;7.192;2023-07-02T08:21:51;23.58;;;7.38;;
35959;SDS011;22043;50.970;7.192;2023-07-02T08:24:16;20.70;;;7.18;;
35959;SDS011;22043;50.970;7.192;2023-07-02T08:26:42;21.13;;;6.88;;
35959;SDS011;22043;50.970;7.192;2023-07-02T08:29:07;17.65;;;6.97;;
35959;SDS011;22043;50.970;7.192;2023-07-02T08:31:32;20.05;;;7.05;;
35959;SDS011;22043;50.970;7.192;2023-07-02T08:33:58;20.90;;;8.18;;
35959;SDS011;22043;50.970;7.192;2023-07-02T08:36:23;21.02;;;8.35;;
35959;SDS011;22043;50.970;7.192;2023-07-02T08:38:49;23.60;;;6.85;;
35959;SDS011;22043;50.970;7.192;2023-07-02T08:41:14;20.77;;;7.25;;
35959;SDS011;22043;50.970;7.192;2023-07-02T08:43:39;17.25;;;6.50;;
35959;SDS011;22043;50.970;7.192;2023-07-02T08:46:05;20.38;;;7.07;;
35959;SDS011;22043;50.970;7.192;2023-07-02T08:48:32;23.65;;;6.72;;
35959;SDS011;22043;50.970;7.192;2023-07-02T08:50:59;22.75;;;7.55;;
35959;SDS011;22043;50.970;7.192;2023-07-02T08:53:24;19.95;;;7.20;;
35959;SDS011;22043;50.970;7.192;2023-07-02T08:55:54;20.45;;;6.88;;
35959;SDS011;22043;50.970;7.192;2023-07-02T08:58:21;22.15;;;7.43;;
35959;SDS011;22043;50.970;7.192;2023-07-02T09:01:05;22.75;;;6.68;;
35959;SDS011;22043;50.970;7.192;2023-07-02T09:03:34;15.60;;;6.28;;
35959;SDS011;22043;50.970;7.192;2023-07-02T09:06:02;18.42;;;6.63;;
35959;SDS011;22043;50.970;7.192;2023-07-02T09:08:28;21.02;;;6.30;;
35959;SDS011;22043;50.970;7.192;2023-07-02T09:10:54;14.40;;;6.53;;
35959;SDS011;22043;50.970;7.192;2023-07-02T09:13:20;20.83;;;6.70;;
35959;SDS011;22043;50.970;7.192;2023-07-02T09:15:45;24.27;;;8.57;;
35959;SDS011;22043;50.970;7.192;2023-07-02T09:20:46;25.00;;;8.65;;
35959;SDS011;22043;50.970;7.192;2023-07-02T09:23:12;22.20;;;7.28;;
35959;SDS011;22043;50.970;7.192;2023-07-02T09:25:38;22.83;;;6.35;;
35959;SDS011;22043;50.970;7.192;2023-07-02T09:28:17;20.90;;;6.45;;
35959;SDS011;22043;50.970;7.192;2023-07-02T09:30:53;22.17;;;7.80;;
35959;SDS011;22043;50.970;7.192;2023-07-02T09:33:20;19.13;;;7.40;;
35959;SDS011;22043;50.970;7.192;2023-07-02T09:35:48;20.95;;;7.13;;
35959;SDS011;22043;50.970;7.192;2023-07-02T09:38:15;19.75;;;6.57;;
35959;SDS011;22043;50.970;7.192;2023-07-02T09:40:45;23.60;;;6.95;;
35959;SDS011;22043;50.970;7.192;2023-07-02T09:43:13;16.08;;;6.32;;
35959;SDS011;22043;50.970;7.192;2023-07-02T09:45:40;19.13;;;6.95;;
35959;SDS011;22043;50.970;7.192;2023-07-02T09:48:08;16.58;;;6.75;;
35959;SDS011;22043;50.970;7.192;2023-07-02T09:50:33;20.80;;;6.78;;
35959;SDS011;22043;50.970;7.192;2023-07-02T09:52:59;17.92;;;6.38;;
35959;SDS011;22043;50.970;7.192;2023-07-02T09:55:25;20.55;;;6.97;;
35959;SDS011;22043;50.970;7.192;2023-07-02T09:57:51;19.17;;;6.40;;
35959;SDS011;22043;50.970;7.192;2023-07-02T10:00:17;20.88;;;6.90;;
35959;SDS011;22043;50.970;7.192;2023-07-02T10:02:47;19.80;;;5.78;;
35959;SDS011;22043;50.970;7.192;2023-07-02T10:05:25;20.92;;;6.35;;
35959;SDS011;22043;50.970;7.192;2023-07-02T10:08:11;17.35;;;6.55;;
35959;SDS011;22043;50.970;7.192;2023-07-02T10:10:38;19.25;;;6.40;;
35959;SDS011;22043;50.970;7.192;2023-07-02T10:13:04;22.40;;;7.20;;
35959;SDS011;22043;50.970;7.192;2023-07-02T10:15:30;16.25;;;6.72;;
35959;SDS011;22043;50.970;7.192;2023-07-02T10:17:57;22.33;;;7.55;;
35959;SDS011;22043;50.970;7.192;2023-07-02T10:20:36;17.03;;;7.33;;
35959;SDS011;22043;50.970;7.192;2023-07-02T10:23:04;19.35;;;6.35;;
35959;SDS011;22043;50.970;7.192;2023-07-02T10:25:36;16.38;;;6.93;;
35959;SDS011;22043;50.970;7.192;2023-07-02T10:28:19;20.85;;;7.80;;
35959;SDS011;22043;50.970;7.192;2023-07-02T10:30:47;23.17;;;8.05;;
35959;SDS011;22043;50.970;7.192;2023-07-02T10:33:16;18.77;;;7.65;;
35959;SDS011;22043;50.970;7.192;2023-07-02T10:35:43;19.42;;;7.57;;
35959;SDS011;22043;50.970;7.192;2023-07-02T10:38:15;21.13;;;7.15;;
35959;SDS011;22043;50.970;7.192;2023-07-02T10:40:43;19.65;;;6.88;;
35959;SDS011;22043;50.970;7.192;2023-07-02T10:43:08;17.13;;;7.53;;
35959;SDS011;22043;50.970;7.192;2023-07-02T10:45:34;25.25;;;8.32;;
35959;SDS011;22043;50.970;7.192;2023-07-02T10:48:01;18.67;;;8.02;;
35959;SDS011;22043;50.970;7.192;2023-07-02T10:50:28;20.30;;;8.02;;
35959;SDS011;22043;50.970;7.192;2023-07-02T10:52:53;20.52;;;7.65;;
35959;SDS011;22043;50.970;7.192;2023-07-02T10:55:23;21.52;;;7.32;;
35959;SDS011;22043;50.970;7.192;2023-07-02T10:57:49;17.17;;;8.18;;
35959;SDS011;22043;50.970;7.192;2023-07-02T11:00:19;17.02;;;7.38;;
35959;SDS011;22043;50.970;7.192;2023-07-02T11:02:48;15.98;;;7.32;;
35959;SDS011;22043;50.970;7.192;2023-07-02T11:05:14;18.90;;;6.95;;
35959;SDS011;22043;50.970;7.192;2023-07-02T11:07:42;17.65;;;6.78;;
35959;SDS011;22043;50.970;7.192;2023-07-02T11:10:08;19.08;;;6.68;;
35959;SDS011;22043;50.970;7.192;2023-07-02T11:12:34;20.40;;;7.20;;
35959;SDS011;22043;50.970;7.192;2023-07-02T11:15:11;17.38;;;6.63;;
35959;SDS011;22043;50.970;7.192;2023-07-02T11:17:38;25.02;;;6.15;;
35959;SDS011;22043;50.970;7.192;2023-07-02T11:20:06;16.25;;;6.97;;
35959;SDS011;22043;50.970;7.192;2023-07-02T11:22:36;27.65;;;8.13;;
35959;SDS011;22043;50.970;7.192;2023-07-02T11:25:08;19.33;;;6.70;;
35959;SDS011;22043;50.970;7.192;2023-07-02T11:27:38;15.75;;;6.55;;
35959;SDS011;22043;50.970;7.192;2023-07-02T11:30:04;20.45;;;7.10;;
35959;SDS011;22043;50.970;7.192;2023-07-02T11:32:30;17.83;;;6.90;;
35959;SDS011;22043;50.970;7.192;2023-07-02T11:34:56;17.83;;;6.72;;
35959;SDS011;22043;50.970;7.192;2023-07-02T11:37:21;18.70;;;7.05;;
35959;SDS011;22043;50.970;7.192;2023-07-02T11:39:47;19.45;;;7.50;;
35959;SDS011;22043;50.970;7.192;2023-07-02T11:42:12;17.70;;;6.88;;
35959;SDS011;22043;50.970;7.192;2023-07-02T11:44:38;17.85;;;7.03;;
35959;SDS011;22043;50.970;7.192;2023-07-02T11:47:03;16.45;;;6.93;;
35959;SDS011;22043;50.970;7.192;2023-07-02T11:49:29;16.45;;;7.53;;
35959;SDS011;22043;50.970;7.192;2023-07-02T11:51:54;18.83;;;7.72;;
35959;SDS011;22043;50.970;7.192;2023-07-02T11:54:19;21.30;;;6.90;;
35959;SDS011;22043;50.970;7.192;2023-07-02T11:56:45;15.98;;;6.38;;
35959;SDS011;22043;50.970;7.192;2023-07-02T11:59:10;17.38;;;6.32;;
35959;SDS011;22043;50.970;7.192;2023-07-02T12:01:36;16.73;;;6.88;;
35959;SDS011;22043;50.970;7.192;2023-07-02T12:04:02;15.48;;;6.25;;
35959;SDS011;22043;50.970;7.192;2023-07-02T12:06:27;20.63;;;7.60;;
35959;SDS011;22043;50.970;7.192;2023-07-02T12:08:53;17.02;;;6.32;;
35959;SDS011;22043;50.970;7.192;2023-07-02T12:11:18;19.13;;;7.68;;
35959;SDS011;22043;50.970;7.192;2023-07-02T12:13:43;18.38;;;7.47;;
35959;SDS011;22043;50.970;7.192;2023-07-02T12:16:09;18.85;;;7.03;;
35959;SDS011;22043;50.970;7.192;2023-07-02T12:18:34;21.15;;;7.90;;
35959;SDS011;22043;50.970;7.192;2023-07-02T12:21:00;20.77;;;7.00;;
35959;SDS011;22043;50.970;7.192;2023-07-02T12:23:25;22.80;;;7.40;;
35959;SDS011;22043;50.970;7.192;2023-07-02T12:25:51;19.73;;;6.40;;
35959;SDS011;22043;50.970;7.192;2023-07-02T12:28:16;15.98;;;6.60;;
35959;SDS011;22043;50.970;7.192;2023-07-02T12:30:42;21.40;;;6.72;;
35959;SDS011;22043;50.970;7.192;2023-07-02T12:33:07;17.98;;;7.03;;
35959;SDS011;22043;50.970;7.192;2023-07-02T12:35:33;17.25;;;5.90;;
35959;SDS011;22043;50.970;7.192;2023-07-02T12:37:58;14.48;;;5.93;;
35959;SDS011;22043;50.970;7.192;2023-07-02T12:40:24;15.15;;;6.05;;
35959;SDS011;22043;50.970;7.192;2023-07-02T12:42:50;14.27;;;6.50;;
35959;SDS011;22043;50.970;7.192;2023-07-02T12:45:15;19.20;;;6.13;;
35959;SDS011;22043;50.970;7.192;2023-07-02T12:47:41;12.75;;;5.75;;
35959;SDS011;22043;50.970;7.192;2023-07-02T12:50:07;17.23;;;5.97;;
35959;SDS011;22043;50.970;7.192;2023-07-02T12:52:33;12.20;;;5.30;;
35959;SDS011;22043;50.970;7.192;2023-07-02T12:54:59;15.10;;;5.15;;
35959;SDS011;22043;50.970;7.192;2023-07-02T12:57:25;13.23;;;4.68;;
35959;SDS011;22043;50.970;7.192;2023-07-02T12:59:53;16.98;;;4.20;;
35959;SDS011;22043;50.970;7.192;2023-07-02T13:02:20;13.60;;;4.13;;
35959;SDS011;22043;50.970;7.192;2023-07-02T13:04:46;16.45;;;6.18;;
35959;SDS011;22043;50.970;7.192;2023-07-02T13:07:11;13.57;;;4.05;;
35959;SDS011;22043;50.970;7.192;2023-07-02T13:09:37;11.07;;;4.22;;
35959;SDS011;22043;50.970;7.192;2023-07-02T13:12:05;11.88;;;5.13;;
35959;SDS011;22043;50.970;7.192;2023-07-02T13:14:31;12.43;;;4.38;;
35959;SDS011;22043;50.970;7.192;2023-07-02T13:16:57;11.35;;;4.20;;
35959;SDS011;22043;50.970;7.192;2023-07-02T13:19:24;11.07;;;4.67;;
35959;SDS011;22043;50.970;7.192;2023-07-02T13:21:49;19.33;;;4.82;;
35959;SDS011;22043;50.970;7.192;2023-07-02T13:24:15;11.85;;;4.53;;
35959;SDS011;22043;50.970;7.192;2023-07-02T13:26:40;16.23;;;4.55;;
35959;SDS011;22043;50.970;7.192;2023-07-02T13:29:06;13.68;;;4.18;;
35959;SDS011;22043;50.970;7.192;2023-07-02T13:31:31;15.88;;;5.88;;
35959;SDS011;22043;50.970;7.192;2023-07-02T13:33:56;10.52;;;4.22;;
35959;SDS011;22043;50.970;7.192;2023-07-02T13:36:22;14.00;;;4.93;;
35959;SDS011;22043;50.970;7.192;2023-07-02T13:38:47;14.63;;;5.25;;
35959;SDS011;22043;50.970;7.192;2023-07-02T13:41:13;22.92;;;6.30;;
35959;SDS011;22043;50.970;7.192;2023-07-02T13:43:38;14.05;;;4.82;;
35959;SDS011;22043;50.970;7.192;2023-07-02T13:46:04;14.75;;;4.78;;
35959;SDS011;22043;50.970;7.192;2023-07-02T13:48:29;12.57;;;5.00;;
35959;SDS011;22043;50.970;7.192;2023-07-02T13:50:55;13.48;;;4.53;;
35959;SDS011;22043;50.970;7.192;2023-07-02T13:53:20;14.93;;;5.38;;
35959;SDS011;22043;50.970;7.192;2023-07-02T13:55:46;14.88;;;5.18;;
35959;SDS011;22043;50.970;7.192;2023-07-02T13:58:11;17.95;;;5.72;;
35959;SDS011;22043;50.970;7.192;2023-07-02T14:00:36;17.45;;;5.50;;
35959;SDS011;22043;50.970;7.192;2023-07-02T14:03:02;14.32;;;6.00;;
35959;SDS011;22043;50.970;7.192;2023-07-02T14:05:28;18.60;;;6.45;;
35959;SDS011;22043;50.970;7.192;2023-07-02T14:07:53;15.77;;;5.78;;
35959;SDS011;22043;50.970;7.192;2023-07-02T14:10:19;15.82;;;5.85;;
35959;SDS011;22043;50.970;7.192;2023-07-02T14:12:44;14.30;;;5.28;;
35959;SDS011;22043;50.970;7.192;2023-07-02T14:15:10;12.30;;;5.25;;
35959;SDS011;22043;50.970;7.192;2023-07-02T14:17:36;19.23;;;6.03;;
35959;SDS011;22043;50.970;7.192;2023-07-02T14:20:02;13.57;;;5.32;;
35959;SDS011;22043;50.970;7.192;2023-07-02T14:22:28;14.07;;;6.03;;
35959;SDS011;22043;50.970;7.192;2023-07-02T14:24:53;17.95;;;5.60;;
35959;SDS011;22043;50.970;7.192;2023-07-02T14:27:19;14.43;;;5.68;;
35959;SDS011;22043;50.970;7.192;2023-07-02T14:29:44;13.45;;;5.63;;
35959;SDS011;22043;50.970;7.192;2023-07-02T14:34:37;15.77;;;5.78;;
35959;SDS011;22043;50.970;7.192;2023-07-02T14:37:03;15.68;;;5.43;;
35959;SDS011;22043;50.970;7.192;2023-07-02T14:39:28;16.77;;;5.38;;
35959;SDS011;22043;50.970;7.192;2023-07-02T14:41:54;13.10;;;5.15;;